Time,TemperatureF,DewpointF,PressureIn,WindDirection,WindDirectionDegrees,WindSpeedMPH,WindSpeedGustMPH,Humidity,HourlyPrecipIn,Conditions,Clouds,dailyrainin,SoftwareType,DateUTC
2013-05-29 00:09:00,61.4,53.0,30.18,SSW,193,0.0,3.0,75,0.00,,,0.00,weatherlink.com 1.10,2013-05-29 04:09:00,
2013-05-29 00:24:00,61.2,53.0,30.19,SSE,167,2.0,4.0,75,0.00,,,0.00,weatherlink.com 1.10,2013-05-29 04:24:00,
2013-05-29 00:39:00,61.2,54.0,30.18,South,190,0.0,3.0,78,0.00,,,0.00,weatherlink.com 1.10,2013-05-29 04:39:00,
2013-05-29 00:54:00,61.1,55.0,30.18,WSW,237,0.0,3.0,80,0.00,,,0.00,weatherlink.com 1.10,2013-05-29 04:54:00,
2013-05-29 01:09:00,61.1,55.0,30.18,SE,136,0.0,3.0,81,0.00,,,0.00,weatherlink.com 1.10,2013-05-29 05:09:00,
2013-05-29 01:24:00,60.9,56.0,30.17,SW,228,2.0,6.0,83,0.00,,,0.00,weatherlink.com 1.10,2013-05-29 05:24:00,
2013-05-29 01:39:00,60.7,56.0,30.17,SSW,212,3.0,6.0,84,0.00,,,0.00,weatherlink.com 1.10,2013-05-29 05:39:00,
2013-05-29 01:54:00,60.6,56.0,30.17,SE,141,2.0,7.0,84,0.00,,,0.00,weatherlink.com 1.10,2013-05-29 05:54:00,
2013-05-29 02:09:00,60.6,56.0,30.16,SW,229,0.0,7.0,85,0.00,,,0.00,weatherlink.com 1.10,2013-05-29 06:09:00,
2013-05-29 02:24:00,60.5,56.0,30.15,SE,136,1.0,6.0,85,0.00,,,0.00,weatherlink.com 1.10,2013-05-29 06:24:00,
2013-05-29 02:39:00,60.3,56.0,30.15,South,169,1.0,7.0,86,0.00,,,0.00,weatherlink.com 1.10,2013-05-29 06:39:00,
2013-05-29 02:54:00,60.0,57.0,30.15,SSE,160,3.0,6.0,88,0.00,,,0.00,weatherlink.com 1.10,2013-05-29 06:54:00,
2013-05-29 03:09:00,59.6,57.0,30.14,SW,221,2.0,5.0,90,0.00,,,0.00,weatherlink.com 1.10,2013-05-29 07:09:00,
2013-05-29 03:24:00,59.4,57.0,30.14,WSW,239,2.0,3.0,91,0.00,,,0.00,weatherlink.com 1.10,2013-05-29 07:24:00,
2013-05-29 03:39:00,59.1,57.0,30.14,South,190,0.0,5.0,92,0.00,,,0.00,weatherlink.com 1.10,2013-05-29 07:39:00,
2013-05-29 03:54:00,59.0,57.0,30.13,SSE,166,1.0,4.0,93,0.00,,,0.00,weatherlink.com 1.10,2013-05-29 07:54:00,
2013-05-29 04:09:00,58.9,57.0,30.12,SSE,160,2.0,3.0,94,0.00,,,0.00,weatherlink.com 1.10,2013-05-29 08:09:00,
2013-05-29 04:24:00,58.9,57.0,30.12,SSW,203,1.0,5.0,94,0.01,,,0.01,weatherlink.com 1.10,2013-05-29 08:24:00,
2013-05-29 04:39:00,58.9,57.0,30.11,SE,144,1.0,3.0,94,0.03,,,0.03,weatherlink.com 1.10,2013-05-29 08:39:00,
2013-05-29 04:54:00,58.9,58.0,30.11,SSE,160,0.0,3.0,95,0.03,,,0.03,weatherlink.com 1.10,2013-05-29 08:54:00,
2013-05-29 05:09:00,59.0,58.0,30.11,SE,141,1.0,2.0,95,0.06,,,0.06,weatherlink.com 1.10,2013-05-29 09:09:00,
2013-05-29 05:25:00,59.0,58.0,30.11,SE,132,3.0,3.0,95,0.08,,,0.09,weatherlink.com 1.10,2013-05-29 09:25:00,
2013-05-29 05:39:00,59.0,58.0,30.11,SSE,162,0.0,2.0,95,0.11,,,0.14,weatherlink.com 1.10,2013-05-29 09:39:00,
2013-05-29 05:54:00,59.0,58.0,30.11,SW,217,0.0,3.0,95,0.16,,,0.19,weatherlink.com 1.10,2013-05-29 09:54:00,
2013-05-29 06:09:00,59.0,58.0,30.11,WSW,246,1.0,2.0,96,0.18,,,0.24,weatherlink.com 1.10,2013-05-29 10:09:00,
2013-05-29 06:24:00,59.2,58.0,30.11,SE,124,1.0,2.0,96,0.18,,,0.28,weatherlink.com 1.10,2013-05-29 10:24:00,
2013-05-29 06:39:00,59.2,58.0,30.11,SSE,149,0.0,1.0,96,0.18,,,0.32,weatherlink.com 1.10,2013-05-29 10:39:00,
2013-05-29 06:55:00,59.3,58.0,30.12,SSE,160,1.0,2.0,96,0.13,,,0.33,weatherlink.com 1.10,2013-05-29 10:55:00,
2013-05-29 07:09:00,59.4,58.0,30.11,SSW,193,2.0,2.0,96,0.10,,,0.34,weatherlink.com 1.10,2013-05-29 11:09:00,
2013-05-29 07:24:00,59.6,59.0,30.11,South,172,0.0,1.0,96,0.07,,,0.35,weatherlink.com 1.10,2013-05-29 11:24:00,
2013-05-29 07:39:00,59.7,58.0,30.11,SE,136,1.0,2.0,95,0.04,,,0.36,weatherlink.com 1.10,2013-05-29 11:39:00,
2013-05-29 07:54:00,59.9,59.0,30.10,SSE,165,0.0,3.0,95,0.03,,,0.36,weatherlink.com 1.10,2013-05-29 11:54:00,
2013-05-29 08:09:00,60.4,59.0,30.11,SE,134,1.0,2.0,95,0.01,,,0.36,weatherlink.com 1.10,2013-05-29 12:09:00,
2013-05-29 08:24:00,60.4,59.0,30.11,SW,231,0.0,2.0,95,0.01,,,0.36,weatherlink.com 1.10,2013-05-29 12:24:00,
2013-05-29 08:39:00,60.7,59.0,30.10,SW,219,1.0,4.0,94,0.00,,,0.36,weatherlink.com 1.10,2013-05-29 12:39:00,
2013-05-29 08:54:00,60.7,59.0,30.10,West,277,2.0,5.0,94,0.00,,,0.36,weatherlink.com 1.10,2013-05-29 12:54:00,
2013-05-29 09:09:00,60.7,59.0,30.10,South,173,2.0,3.0,94,0.02,,,0.38,weatherlink.com 1.10,2013-05-29 13:09:00,
2013-05-29 09:24:00,60.7,59.0,30.09,SW,221,1.0,2.0,94,0.04,,,0.40,weatherlink.com 1.10,2013-05-29 13:24:00,
2013-05-29 09:39:00,61.2,60.0,30.09,SSW,211,1.0,4.0,94,0.05,,,0.41,weatherlink.com 1.10,2013-05-29 13:39:00,
2013-05-29 09:54:00,61.7,60.0,30.09,ESE,119,1.0,6.0,93,0.05,,,0.41,weatherlink.com 1.10,2013-05-29 13:54:00,
2013-05-29 10:10:00,61.9,60.0,30.09,South,170,0.0,3.0,92,0.03,,,0.41,weatherlink.com 1.10,2013-05-29 14:10:00,
2013-05-29 10:25:00,62.6,60.0,30.09,WNW,295,2.0,5.0,92,0.01,,,0.41,weatherlink.com 1.10,2013-05-29 14:25:00,
2013-05-29 10:40:00,62.6,60.0,30.09,West,273,3.0,4.0,91,0.00,,,0.41,weatherlink.com 1.10,2013-05-29 14:40:00,
2013-05-29 10:55:00,62.7,60.0,30.09,West,276,0.0,2.0,91,0.00,,,0.41,weatherlink.com 1.10,2013-05-29 14:55:00,
2013-05-29 11:10:00,63.1,60.0,30.09,WSW,239,0.0,4.0,90,0.00,,,0.41,weatherlink.com 1.10,2013-05-29 15:10:00,
2013-05-29 11:25:00,63.4,61.0,30.09,WSW,250,1.0,4.0,90,0.00,,,0.41,weatherlink.com 1.10,2013-05-29 15:25:00,
2013-05-29 11:40:00,63.3,60.0,30.08,West,266,1.0,3.0,90,0.00,,,0.41,weatherlink.com 1.10,2013-05-29 15:40:00,
2013-05-29 11:55:00,64.2,61.0,30.07,SE,142,1.0,4.0,90,0.00,,,0.41,weatherlink.com 1.10,2013-05-29 15:55:00,
2013-05-29 12:10:00,64.4,61.0,30.05,WSW,239,1.0,4.0,88,0.00,,,0.41,weatherlink.com 1.10,2013-05-29 16:10:00,
2013-05-29 12:25:00,64.5,61.0,30.02,SSE,148,2.0,7.0,89,0.00,,,0.41,weatherlink.com 1.10,2013-05-29 16:25:00,
2013-05-29 12:40:00,64.8,62.0,30.03,WSW,257,2.0,8.0,90,0.00,,,0.41,weatherlink.com 1.10,2013-05-29 16:40:00,
2013-05-29 12:55:00,64.6,62.0,30.05,SW,226,0.0,5.0,90,0.00,,,0.41,weatherlink.com 1.10,2013-05-29 16:55:00,
2013-05-29 13:10:00,65.1,62.0,30.06,WNW,295,0.0,7.0,89,0.00,,,0.41,weatherlink.com 1.10,2013-05-29 17:10:00,
2013-05-29 13:25:00,65.8,62.0,30.06,NW,308,0.0,3.0,86,0.00,,,0.41,weatherlink.com 1.10,2013-05-29 17:25:00,
2013-05-29 13:40:00,65.6,62.0,30.06,WNW,282,2.0,4.0,87,0.00,,,0.41,weatherlink.com 1.10,2013-05-29 17:40:00,
2013-05-29 13:55:00,67.0,63.0,30.05,NW,319,1.0,3.0,86,0.00,,,0.41,weatherlink.com 1.10,2013-05-29 17:55:00,
2013-05-29 14:10:00,67.9,63.0,30.05,West,276,2.0,4.0,83,0.00,,,0.41,weatherlink.com 1.10,2013-05-29 18:10:00,
2013-05-29 14:25:00,69.4,63.0,30.05,WNW,297,1.0,2.0,81,0.00,,,0.41,weatherlink.com 1.10,2013-05-29 18:25:00,
2013-05-29 14:40:00,69.2,63.0,30.04,SW,232,0.0,3.0,80,0.00,,,0.41,weatherlink.com 1.10,2013-05-29 18:40:00,
2013-05-29 14:55:00,69.6,64.0,30.04,North,9,1.0,2.0,81,0.00,,,0.41,weatherlink.com 1.10,2013-05-29 18:55:00,
2013-05-29 15:10:00,70.4,64.0,30.03,SW,217,2.0,2.0,79,0.00,,,0.41,weatherlink.com 1.10,2013-05-29 19:10:00,
2013-05-29 15:25:00,70.7,64.0,30.03,SE,124,2.0,2.0,78,0.00,,,0.41,weatherlink.com 1.10,2013-05-29 19:25:00,
2013-05-29 15:40:00,72.2,64.0,30.03,SE,131,0.0,3.0,76,0.00,,,0.41,weatherlink.com 1.10,2013-05-29 19:40:00,
2013-05-29 15:55:00,73.6,64.0,30.02,WNW,295,1.0,3.0,73,0.00,,,0.41,weatherlink.com 1.10,2013-05-29 19:55:00,
2013-05-29 16:10:00,72.7,64.0,30.02,West,274,0.0,1.0,75,0.00,,,0.41,weatherlink.com 1.10,2013-05-29 20:10:00,
2013-05-29 16:25:00,72.6,65.0,30.03,ESE,106,1.0,2.0,76,0.00,,,0.41,weatherlink.com 1.10,2013-05-29 20:25:00,
2013-05-29 16:40:00,72.4,64.0,30.02,NNE,29,0.0,1.0,76,0.00,,,0.41,weatherlink.com 1.10,2013-05-29 20:40:00,
2013-05-29 16:55:00,71.4,65.0,30.02,NE,34,0.0,2.0,79,0.00,,,0.41,weatherlink.com 1.10,2013-05-29 20:55:00,
2013-05-29 17:10:00,70.6,64.0,30.03,North,350,0.0,2.0,79,0.00,,,0.41,weatherlink.com 1.10,2013-05-29 21:10:00,
2013-05-29 17:25:00,69.7,64.0,30.03,ESE,106,2.0,2.0,82,0.00,,,0.41,weatherlink.com 1.10,2013-05-29 21:25:00,
2013-05-29 17:40:00,70.2,65.0,30.02,NE,44,0.0,2.0,82,0.00,,,0.41,weatherlink.com 1.10,2013-05-29 21:40:00,
2013-05-29 17:56:00,70.6,64.0,30.02,ESE,105,0.0,3.0,80,0.00,,,0.41,weatherlink.com 1.10,2013-05-29 21:56:00,
2013-05-29 18:10:00,70.7,64.0,30.01,East,91,0.0,2.0,80,0.00,,,0.41,weatherlink.com 1.10,2013-05-29 22:10:00,
2013-05-29 18:25:00,70.4,64.0,30.01,SSE,159,0.0,2.0,80,0.00,,,0.41,weatherlink.com 1.10,2013-05-29 22:25:00,
2013-05-29 18:40:00,68.4,62.0,30.01,South,191,0.0,5.0,79,0.00,,,0.41,weatherlink.com 1.10,2013-05-29 22:40:00,
2013-05-29 18:55:00,67.7,61.0,30.01,SSW,205,2.0,4.0,80,0.00,,,0.41,weatherlink.com 1.10,2013-05-29 22:55:00,
2013-05-29 19:10:00,66.4,61.0,30.01,South,190,0.0,4.0,83,0.00,,,0.41,weatherlink.com 1.10,2013-05-29 23:10:00,
2013-05-29 19:25:00,65.5,61.0,30.01,SE,124,1.0,2.0,85,0.00,,,0.41,weatherlink.com 1.10,2013-05-29 23:25:00,
2013-05-29 19:41:00,64.9,61.0,30.00,SE,129,0.0,3.0,87,0.00,,,0.41,weatherlink.com 1.10,2013-05-29 23:41:00,
2013-05-29 19:56:00,64.6,61.0,30.00,SE,124,0.0,1.0,88,0.00,,,0.41,weatherlink.com 1.10,2013-05-29 23:56:00,
2013-05-29 20:11:00,64.4,61.0,30.00,SE,124,0.0,1.0,89,0.00,,,0.41,weatherlink.com 1.10,2013-05-30 00:11:00,
2013-05-29 20:26:00,64.4,61.0,30.00,SE,124,1.0,1.0,89,0.00,,,0.41,weatherlink.com 1.10,2013-05-30 00:26:00,
2013-05-29 20:41:00,64.4,62.0,30.00,SE,124,0.0,1.0,90,0.00,,,0.41,weatherlink.com 1.10,2013-05-30 00:41:00,
2013-05-29 20:56:00,64.2,61.0,30.00,SE,124,0.0,1.0,90,0.00,,,0.41,weatherlink.com 1.10,2013-05-30 00:56:00,
2013-05-29 21:12:00,64.2,62.0,30.00,SE,124,0.0,1.0,91,0.00,,,0.41,weatherlink.com 1.10,2013-05-30 01:12:00,
2013-05-29 21:26:00,64.2,62.0,30.00,SE,124,0.0,1.0,91,0.00,,,0.41,weatherlink.com 1.10,2013-05-30 01:26:00,
2013-05-29 21:41:00,64.1,62.0,30.01,East,98,0.0,2.0,91,0.00,,,0.41,weatherlink.com 1.10,2013-05-30 01:41:00,
2013-05-29 21:56:00,64.0,61.0,30.00,North,357,1.0,2.0,90,0.00,,,0.41,weatherlink.com 1.10,2013-05-30 01:56:00,
2013-05-29 22:11:00,63.6,61.0,29.99,NNW,338,0.0,1.0,90,0.00,,,0.41,weatherlink.com 1.10,2013-05-30 02:11:00,
2013-05-29 22:26:00,63.5,61.0,30.01,NW,326,2.0,3.0,91,0.26,,,0.67,weatherlink.com 1.10,2013-05-30 02:26:00,
2013-05-29 22:41:00,62.9,61.0,30.02,West,269,0.0,2.0,94,0.42,,,0.83,weatherlink.com 1.10,2013-05-30 02:41:00,
2013-05-29 22:56:00,62.7,61.0,30.02,ESE,108,1.0,2.0,94,0.52,,,0.93,weatherlink.com 1.10,2013-05-30 02:56:00,
2013-05-29 23:11:00,62.5,61.0,30.04,West,266,1.0,2.0,95,0.59,,,1.00,weatherlink.com 1.10,2013-05-30 03:11:00,
2013-05-29 23:26:00,62.5,61.0,30.02,SE,132,1.0,1.0,95,0.39,,,1.07,weatherlink.com 1.10,2013-05-30 03:26:00,
2013-05-29 23:41:00,62.4,61.0,29.99,SSE,153,0.0,4.0,96,0.26,,,1.10,weatherlink.com 1.10,2013-05-30 03:41:00,
2013-05-29 23:56:00,62.8,62.0,30.00,West,259,3.0,5.0,96,0.17,,,1.10,weatherlink.com 1.10,2013-05-30 03:56:00,